createdAt,value
2022-09-04T00:02:08.570Z,14.40
2022-09-04T00:04:39.692Z,14.50
2022-09-04T00:07:22.092Z,14.50
2022-09-04T00:09:59.203Z,14.40
2022-09-04T00:12:30.073Z,14.50
2022-09-04T00:15:01.633Z,14.40
2022-09-04T00:17:35.538Z,14.50
2022-09-04T00:20:07.791Z,14.50
2022-09-04T00:22:38.301Z,14.50
2022-09-04T00:25:13.689Z,14.50
2022-09-04T00:27:45.753Z,14.50
2022-09-04T00:30:20.702Z,14.50
2022-09-04T00:32:55.023Z,14.50
2022-09-04T00:35:25.448Z,14.50
2022-09-04T00:37:53.154Z,14.50
2022-09-04T00:40:31.328Z,14.50
2022-09-04T00:43:18.391Z,14.50
2022-09-04T00:46:09.623Z,14.50
2022-09-04T00:48:56.473Z,14.50
2022-09-04T00:51:43.589Z,14.50
2022-09-04T00:54:29.960Z,14.50
2022-09-04T00:57:16.131Z,14.50
2022-09-04T01:00:03.833Z,14.50
2022-09-04T01:02:31.620Z,14.50
2022-09-04T01:05:20.641Z,14.50
2022-09-04T01:07:56.757Z,14.50
2022-09-04T01:10:40.385Z,14.50
2022-09-04T01:13:13.116Z,14.40
2022-09-04T01:15:44.957Z,14.40
2022-09-04T01:18:21.960Z,14.40
2022-09-04T01:21:08.810Z,14.40
2022-09-04T01:23:45.789Z,14.30
2022-09-04T01:26:30.668Z,14.30
2022-09-04T01:29:13.767Z,14.30
2022-09-04T01:31:44.849Z,14.30
2022-09-04T01:34:31.541Z,14.20
2022-09-04T01:37:05.889Z,14.20
2022-09-04T01:39:35.038Z,14.20
2022-09-04T01:42:13.728Z,14.20
2022-09-04T01:44:41.786Z,14.20
2022-09-04T01:47:21.891Z,14.20
2022-09-04T01:50:02.464Z,14.20
2022-09-04T01:52:48.348Z,14.20
2022-09-04T01:55:25.315Z,14.10
2022-09-04T01:57:53.301Z,14.10
2022-09-04T02:00:24.975Z,14.10
2022-09-04T02:03:02.798Z,14.10
2022-09-04T02:05:49.854Z,14.00
2022-09-04T02:08:25.348Z,14.00
2022-09-04T02:11:02.719Z,14.00
2022-09-04T02:13:34.506Z,14.00
2022-09-04T02:16:14.788Z,14.00
2022-09-04T02:19:01.370Z,14.00
2022-09-04T02:21:33.372Z,13.90
2022-09-04T02:24:02.689Z,14.00
2022-09-04T02:26:33.526Z,14.00
2022-09-04T02:29:20.038Z,14.00
2022-09-04T02:32:10.747Z,14.10
2022-09-04T02:34:44.689Z,14.00
2022-09-04T02:37:25.464Z,14.00
2022-09-04T02:40:19.183Z,14.00
2022-09-04T02:42:59.194Z,14.00
2022-09-04T02:45:30.407Z,14.00
2022-09-04T02:48:04.301Z,14.00
2022-09-04T02:50:51.304Z,14.00
2022-09-04T02:53:38.184Z,14.00
2022-09-04T02:56:24.687Z,14.00
2022-09-04T02:59:03.707Z,13.90
2022-09-04T03:01:52.152Z,13.90
2022-09-04T03:04:32.029Z,13.90
2022-09-04T03:06:59.717Z,13.90
2022-09-04T03:09:34.049Z,13.90
2022-09-04T03:12:09.950Z,14.00
2022-09-04T03:14:51.939Z,14.00
2022-09-04T03:17:26.176Z,13.90
2022-09-04T03:19:54.663Z,13.90
2022-09-04T03:22:35.632Z,13.90
2022-09-04T03:25:12.896Z,13.90
2022-09-04T03:27:41.565Z,13.90
2022-09-04T03:30:11.402Z,13.90
2022-09-04T03:32:45.050Z,13.90
2022-09-04T03:35:13.355Z,13.90
2022-09-04T03:37:51.998Z,13.90
2022-09-04T03:40:23.030Z,13.90
2022-09-04T03:43:03.129Z,13.90
2022-09-04T03:46:00.497Z,13.90
2022-09-04T03:48:51.457Z,13.90
2022-09-04T03:51:24.631Z,13.90
2022-09-04T03:54:12.716Z,13.90
2022-09-04T03:56:40.689Z,13.90
2022-09-04T03:59:11.446Z,13.90
2022-09-04T04:01:56.380Z,13.90
2022-09-04T04:04:48.765Z,13.80
2022-09-04T04:07:20.111Z,13.90
2022-09-04T04:09:48.056Z,13.80
2022-09-04T04:12:27.667Z,13.80
2022-09-04T04:14:55.595Z,13.70
2022-09-04T04:17:31.715Z,13.80
2022-09-04T04:20:22.405Z,13.80
2022-09-04T04:22:50.136Z,13.80
2022-09-04T04:25:32.968Z,13.70
2022-09-04T04:28:00.940Z,13.80
2022-09-04T04:30:35.503Z,13.70
2022-09-04T04:33:22.768Z,13.70
2022-09-04T04:36:13.382Z,13.70
2022-09-04T04:38:41.055Z,13.80
2022-09-04T04:41:25.077Z,13.70
2022-09-04T04:44:45.183Z,13.70
2022-09-04T04:47:17.255Z,13.70
2022-09-04T04:50:03.683Z,13.70
2022-09-04T04:52:50.705Z,13.70
2022-09-04T04:55:41.782Z,13.70
2022-09-04T04:58:21.821Z,13.80
2022-09-04T05:01:04.507Z,13.80
2022-09-04T05:03:52.632Z,13.80
2022-09-04T05:06:31.782Z,13.90
2022-09-04T05:09:06.283Z,13.90
2022-09-04T05:11:47.008Z,13.90
2022-09-04T05:14:24.224Z,13.90
2022-09-04T05:17:03.740Z,13.90
2022-09-04T05:19:47.826Z,13.90
2022-09-04T05:22:21.337Z,13.90
2022-09-04T05:24:55.711Z,13.90
2022-09-04T05:27:23.978Z,13.90
2022-09-04T05:30:05.708Z,13.90
2022-09-04T05:32:36.306Z,13.90
2022-09-04T05:35:40.548Z,14.00
2022-09-04T05:38:13.938Z,14.00
2022-09-04T05:40:58.736Z,14.10
2022-09-04T05:43:30.021Z,14.10
2022-09-04T05:46:17.106Z,14.10
2022-09-04T05:48:53.095Z,14.10
2022-09-04T05:51:29.984Z,14.10
2022-09-04T05:54:10.149Z,14.20
2022-09-04T05:56:47.362Z,14.20
2022-09-04T05:59:24.096Z,14.30
2022-09-04T06:02:04.698Z,14.30
2022-09-04T06:05:02.154Z,14.30
2022-09-04T06:07:48.602Z,14.30
2022-09-04T06:10:36.251Z,14.40
2022-09-04T06:13:17.357Z,14.40
2022-09-04T06:15:52.910Z,14.40
2022-09-04T06:18:24.948Z,14.40
2022-09-04T06:21:12.349Z,14.40
2022-09-04T06:23:50.879Z,14.40
2022-09-04T06:26:31.714Z,14.50
2022-09-04T06:29:29.633Z,14.60
2022-09-04T06:32:08.967Z,14.60
2022-09-04T06:35:01.946Z,14.70
2022-09-04T06:37:42.635Z,14.80
2022-09-04T06:40:21.553Z,14.90
2022-09-04T06:42:58.158Z,14.90
2022-09-04T06:45:29.914Z,14.90
2022-09-04T06:48:09.594Z,15.00
2022-09-04T06:50:43.195Z,15.00
2022-09-04T06:53:27.377Z,15.10
2022-09-04T06:56:10.166Z,15.10
2022-09-04T06:59:00.631Z,15.20
2022-09-04T07:01:40.837Z,15.30
2022-09-04T07:04:27.850Z,15.40
2022-09-04T07:07:08.514Z,15.40
2022-09-04T07:09:46.733Z,15.40
2022-09-04T07:12:17.886Z,15.40
2022-09-04T07:15:03.390Z,15.50
2022-09-04T07:17:37.595Z,15.50
2022-09-04T07:20:22.860Z,15.60
2022-09-04T07:23:10.647Z,15.60
2022-09-04T07:25:45.236Z,15.70
2022-09-04T07:28:29.843Z,15.70
2022-09-04T07:31:09.130Z,15.70
2022-09-04T07:33:38.094Z,15.70
2022-09-04T07:36:08.519Z,15.80
2022-09-04T07:38:40.139Z,15.90
2022-09-04T07:41:32.897Z,15.90
2022-09-04T07:44:07.527Z,15.90
2022-09-04T07:46:44.370Z,15.90
2022-09-04T07:49:35.788Z,15.90
2022-09-04T07:52:20.478Z,16.00
2022-09-04T07:54:59.071Z,16.10
2022-09-04T07:57:39.760Z,16.10
2022-09-04T08:00:14.350Z,16.20
2022-09-04T08:03:02.189Z,16.20
2022-09-04T08:05:49.964Z,16.30
2022-09-04T08:08:34.141Z,16.40
2022-09-04T08:11:18.523Z,16.40
2022-09-04T08:14:00.741Z,16.40
2022-09-04T08:16:35.018Z,16.50
2022-09-04T08:19:24.423Z,16.50
2022-09-04T08:21:53.758Z,16.60
2022-09-04T08:24:41.628Z,16.50
2022-09-04T08:27:31.013Z,16.60
2022-09-04T08:30:07.589Z,16.70
2022-09-04T08:32:54.763Z,16.90
2022-09-04T08:35:37.611Z,17.00
2022-09-04T08:38:32.245Z,17.00
2022-09-04T08:41:19.291Z,17.10
2022-09-04T08:44:06.446Z,17.20
2022-09-04T08:46:43.530Z,17.20
2022-09-04T08:49:18.722Z,17.10
2022-09-04T08:51:57.617Z,17.20
2022-09-04T08:54:26.660Z,17.20
2022-09-04T08:57:04.357Z,17.30
2022-09-04T08:59:51.676Z,17.40
2022-09-04T09:02:23.374Z,17.50
2022-09-04T09:05:07.832Z,17.50
2022-09-04T09:07:45.419Z,17.50
2022-09-04T09:10:26.180Z,17.60
2022-09-04T09:13:07.794Z,17.60
2022-09-04T09:15:55.848Z,17.70
2022-09-04T09:18:34.418Z,17.70
2022-09-04T09:21:02.411Z,17.60
2022-09-04T09:23:52.477Z,17.60
2022-09-04T09:26:24.584Z,17.70
2022-09-04T09:28:56.397Z,17.70
2022-09-04T09:31:36.040Z,17.70
2022-09-04T09:34:09.982Z,17.70
2022-09-04T09:37:03.022Z,17.70
2022-09-04T09:39:32.243Z,17.80
2022-09-04T09:42:14.763Z,17.90
2022-09-04T09:44:46.445Z,18.00
2022-09-04T09:47:34.799Z,18.10
2022-09-04T09:50:13.248Z,18.10
2022-09-04T09:53:01.989Z,18.10
2022-09-04T09:55:39.621Z,18.20
2022-09-04T09:58:37.145Z,18.20
2022-09-04T10:01:08.742Z,18.30
2022-09-04T10:03:39.343Z,18.40
2022-09-04T10:06:11.349Z,18.30
2022-09-04T10:08:58.297Z,18.40
2022-09-04T10:11:49.182Z,18.40
2022-09-04T10:14:24.463Z,18.40
2022-09-04T10:16:53.430Z,18.40
2022-09-04T10:19:40.574Z,18.40
2022-09-04T10:22:20.967Z,18.50
2022-09-04T10:24:48.954Z,18.50
2022-09-04T10:27:17.324Z,18.50
2022-09-04T10:30:03.513Z,18.70
2022-09-04T10:32:34.700Z,18.70
2022-09-04T10:35:09.900Z,18.70
2022-09-04T10:37:53.429Z,18.70
2022-09-04T10:40:48.163Z,18.80
2022-09-04T10:43:19.458Z,18.90
2022-09-04T10:46:09.944Z,18.90
2022-09-04T10:48:45.456Z,19.00
2022-09-04T10:51:14.107Z,19.00
2022-09-04T10:53:48.322Z,19.00
2022-09-04T10:56:27.045Z,19.10
2022-09-04T10:59:05.297Z,19.10
2022-09-04T11:01:35.692Z,19.10
2022-09-04T11:04:04.330Z,19.10
2022-09-04T11:06:58.221Z,19.10
2022-09-04T11:09:31.999Z,19.10
2022-09-04T11:12:12.367Z,19.20
2022-09-04T11:15:06.725Z,19.20
2022-09-04T11:17:44.122Z,19.10
2022-09-04T11:20:30.743Z,19.20
2022-09-04T11:23:09.287Z,19.20
2022-09-04T11:25:43.112Z,19.20
2022-09-04T11:28:30.866Z,19.20
2022-09-04T11:31:02.244Z,19.20
2022-09-04T11:33:36.779Z,19.10
2022-09-04T11:36:22.856Z,19.10
2022-09-04T11:39:00.054Z,19.10
2022-09-04T11:41:46.403Z,19.10
2022-09-04T11:44:33.986Z,19.10
2022-09-04T11:47:20.346Z,19.10
2022-09-04T11:50:06.877Z,19.00
2022-09-04T11:52:53.919Z,19.00
2022-09-04T11:55:41.728Z,19.00
2022-09-04T11:58:28.838Z,19.10
2022-09-04T12:01:00.921Z,19.00
2022-09-04T12:03:49.800Z,19.00
2022-09-04T12:06:36.718Z,19.10
2022-09-04T12:09:13.768Z,19.10
2022-09-04T12:11:42.170Z,19.10
2022-09-04T12:14:23.758Z,19.10
2022-09-04T12:17:11.170Z,19.10
2022-09-04T12:19:59.175Z,19.10
2022-09-04T12:22:46.060Z,19.10
2022-09-04T12:25:21.219Z,19.10
2022-09-04T12:28:09.074Z,19.10
2022-09-04T12:30:40.319Z,19.10
2022-09-04T12:33:11.761Z,19.20
2022-09-04T12:35:52.081Z,19.20
2022-09-04T12:38:29.723Z,19.20
2022-09-04T12:41:10.641Z,19.30
2022-09-04T12:43:52.097Z,19.30
2022-09-04T12:46:56.443Z,19.30
2022-09-04T12:49:35.568Z,19.40
2022-09-04T12:52:27.115Z,19.40
2022-09-04T12:55:15.919Z,19.40
2022-09-04T12:57:47.715Z,19.50
2022-09-04T13:00:18.063Z,19.50
2022-09-04T13:03:02.202Z,19.50
2022-09-04T13:05:32.196Z,19.60
2022-09-04T13:08:09.790Z,19.50
2022-09-04T13:10:44.499Z,19.60
2022-09-04T13:13:21.571Z,19.50
2022-09-04T13:16:00.803Z,19.60
2022-09-04T13:18:35.269Z,19.60
2022-09-04T13:21:19.355Z,19.60
2022-09-04T13:24:04.305Z,19.60
2022-09-04T13:26:57.830Z,19.60
2022-09-04T13:29:40.893Z,19.70
2022-09-04T13:32:18.644Z,19.80
2022-09-04T13:34:55.525Z,19.80
2022-09-04T13:37:30.614Z,19.80
2022-09-04T13:40:19.001Z,19.80
2022-09-04T13:42:59.448Z,19.80
2022-09-04T13:45:31.201Z,19.80
2022-09-04T13:47:59.173Z,19.90
2022-09-04T13:50:35.202Z,19.90
2022-09-04T13:53:25.921Z,20.00
2022-09-04T13:55:57.542Z,20.00
2022-09-04T13:58:33.093Z,20.00
2022-09-04T14:01:02.477Z,20.10
2022-09-04T14:03:38.424Z,20.00
2022-09-04T14:06:08.673Z,20.10
2022-09-04T14:08:40.196Z,20.10
2022-09-04T14:11:16.043Z,20.10
2022-09-04T14:14:03.506Z,20.10
2022-09-04T14:16:36.955Z,20.10
2022-09-04T14:19:15.023Z,20.10
2022-09-04T14:21:47.691Z,20.10
2022-09-04T14:24:21.795Z,20.10
2022-09-04T14:26:56.201Z,20.10
2022-09-04T14:29:27.103Z,20.00
2022-09-04T14:32:14.088Z,20.00
2022-09-04T14:34:52.469Z,20.10
2022-09-04T14:37:44.599Z,20.10
2022-09-04T14:40:27.485Z,20.10
2022-09-04T14:43:00.386Z,20.10
2022-09-04T14:45:48.546Z,20.10
2022-09-04T14:48:17.826Z,20.10
2022-09-04T14:50:48.795Z,20.10
2022-09-04T14:53:22.377Z,20.00
2022-09-04T14:56:11.820Z,20.00
2022-09-04T14:58:42.307Z,20.00
2022-09-04T15:01:21.624Z,20.10
2022-09-04T15:04:01.813Z,20.00
2022-09-04T15:06:49.322Z,20.00
2022-09-04T15:09:41.402Z,20.00
2022-09-04T15:12:24.090Z,20.00
2022-09-04T15:14:57.749Z,19.90
2022-09-04T15:17:28.583Z,19.80
2022-09-04T15:19:56.506Z,19.80
2022-09-04T15:22:36.611Z,19.80
2022-09-04T15:25:56.769Z,19.80
2022-09-04T15:28:19.622Z,19.80
2022-09-04T15:31:03.280Z,19.70
2022-09-04T15:33:31.420Z,19.60
2022-09-04T15:36:08.958Z,19.60
2022-09-04T15:38:37.546Z,19.60
2022-09-04T15:41:17.841Z,19.50
2022-09-04T15:43:48.512Z,19.50
2022-09-04T15:46:35.932Z,19.50
2022-09-04T15:49:20.853Z,19.40
2022-09-04T15:51:52.293Z,19.40
2022-09-04T15:54:21.572Z,19.30
2022-09-04T15:56:52.891Z,19.30
2022-09-04T15:59:41.310Z,19.30
2022-09-04T16:02:36.738Z,19.20
2022-09-04T16:05:15.232Z,19.20
2022-09-04T16:07:55.037Z,19.20
2022-09-04T16:10:26.083Z,19.10
2022-09-04T16:12:57.442Z,19.00
2022-09-04T16:15:32.937Z,19.00
2022-09-04T16:18:03.333Z,18.90
2022-09-04T16:20:35.523Z,18.90
2022-09-04T16:23:08.838Z,18.80
2022-09-04T16:25:43.168Z,18.80
2022-09-04T16:28:16.129Z,18.70
2022-09-04T16:30:48.208Z,18.70
2022-09-04T16:33:36.100Z,18.60
2022-09-04T16:36:03.848Z,18.60
2022-09-04T16:38:35.537Z,18.50
2022-09-04T16:41:11.278Z,18.40
2022-09-04T16:43:39.657Z,18.30
2022-09-04T16:46:33.480Z,18.30
2022-09-04T16:49:19.725Z,18.20
2022-09-04T16:51:58.851Z,18.10
2022-09-04T16:54:37.696Z,18.00
2022-09-04T16:57:17.755Z,17.90
2022-09-04T16:59:51.076Z,17.90
2022-09-04T17:02:20.957Z,17.80
2022-09-04T17:05:11.270Z,17.70
2022-09-04T17:07:47.619Z,17.70
2022-09-04T17:10:19.556Z,17.60
2022-09-04T17:12:54.798Z,17.60
2022-09-04T17:15:27.771Z,17.50
2022-09-04T17:17:57.824Z,17.40
2022-09-04T17:20:51.627Z,17.30
2022-09-04T17:29:01.748Z,17.30
2022-09-04T17:29:13.816Z,17.20
2022-09-04T17:29:49.881Z,17.10
2022-09-04T17:33:42.283Z,17.10
2022-09-04T17:40:34.984Z,16.90
2022-09-04T17:40:50.562Z,16.90
2022-09-04T17:41:40.761Z,16.80
2022-09-04T17:44:03.322Z,16.70
2022-09-04T17:46:32.810Z,16.70
2022-09-04T17:49:07.565Z,16.60
2022-09-04T17:51:37.556Z,16.60
2022-09-04T17:54:12.230Z,16.50
2022-09-04T17:56:41.097Z,16.40
2022-09-04T17:59:13.800Z,16.40
2022-09-04T18:01:55.695Z,16.40
2022-09-04T18:04:32.864Z,16.30
2022-09-04T18:07:57.685Z,16.30
2022-09-04T18:10:33.060Z,16.20
2022-09-04T18:13:37.069Z,16.10
2022-09-04T18:16:21.574Z,16.10
2022-09-04T18:18:57.626Z,16.00
2022-09-04T18:21:32.256Z,15.90
2022-09-04T18:24:04.330Z,15.90
2022-09-04T18:26:40.212Z,15.90
2022-09-04T18:30:37.064Z,15.80
2022-09-04T18:37:13.236Z,15.70
2022-09-04T18:37:20.413Z,15.70
2022-09-04T18:38:21.105Z,15.70
2022-09-04T18:47:00.320Z,15.60
2022-09-04T18:50:23.817Z,15.60
2022-09-04T18:50:38.513Z,15.40
2022-09-04T18:50:44.669Z,15.50
2022-09-04T18:53:03.334Z,15.30
2022-09-04T18:55:35.348Z,15.30
2022-09-04T18:58:13.032Z,15.20
2022-09-04T19:00:48.958Z,15.10
2022-09-04T19:03:23.138Z,15.10
2022-09-04T19:05:53.669Z,15.00
2022-09-04T19:08:29.545Z,15.00
2022-09-04T19:11:01.941Z,14.90
2022-09-04T19:13:51.193Z,14.90
2022-09-04T19:16:34.277Z,14.90
2022-09-04T19:19:30.650Z,14.80
2022-09-04T19:22:13.720Z,14.80
2022-09-04T19:24:59.503Z,14.70
2022-09-04T19:27:32.298Z,14.70
2022-09-04T19:30:18.057Z,14.70
2022-09-04T19:32:48.119Z,14.60
2022-09-04T19:35:19.515Z,14.60
2022-09-04T19:39:23.082Z,14.60
2022-09-04T19:45:56.529Z,14.50
2022-09-04T19:46:13.318Z,14.40
2022-09-04T19:46:48.154Z,14.40
2022-09-04T19:52:23.706Z,14.30
2022-09-04T19:53:32.086Z,14.20
2022-09-04T19:55:24.634Z,14.20
2022-09-04T19:58:30.859Z,14.20
2022-09-04T20:01:00.960Z,14.10
2022-09-04T20:03:46.020Z,14.10
2022-09-04T20:06:20.742Z,14.10
2022-09-04T20:09:29.960Z,14.00
2022-09-04T20:12:09.645Z,13.90
2022-09-04T20:14:43.039Z,13.80
2022-09-04T20:17:17.120Z,13.80
2022-09-04T20:19:53.448Z,13.70
2022-09-04T20:22:26.115Z,13.60
2022-09-04T20:25:16.300Z,13.60
2022-09-04T20:27:47.312Z,13.50
2022-09-04T20:30:25.201Z,13.40
2022-09-04T20:33:12.844Z,13.40
2022-09-04T20:35:43.980Z,13.30
2022-09-04T20:38:34.125Z,13.30
2022-09-04T20:41:08.918Z,13.20
2022-09-04T20:43:40.813Z,13.20
2022-09-04T20:52:45.032Z,13.20
2022-09-04T20:52:54.035Z,13.20
2022-09-04T20:53:04.257Z,13.10
2022-09-04T20:55:17.589Z,13.10
2022-09-04T21:03:14.568Z,13.00
2022-09-04T21:03:27.001Z,12.90
2022-09-04T21:03:35.548Z,12.90
2022-09-04T21:06:25.970Z,12.90
2022-09-04T21:08:58.176Z,12.80
2022-09-04T21:11:40.605Z,12.70
2022-09-04T21:14:44.652Z,12.70
2022-09-04T21:17:33.798Z,12.60
2022-09-04T21:20:12.844Z,12.50
2022-09-04T21:22:59.961Z,12.50
2022-09-04T21:25:30.971Z,12.50
2022-09-04T21:28:20.005Z,12.40
2022-09-04T21:30:58.134Z,12.30
2022-09-04T21:33:42.773Z,12.30
2022-09-04T21:36:27.491Z,12.30
2022-09-04T21:39:18.976Z,12.20
2022-09-04T21:41:47.484Z,12.30
2022-09-04T21:44:15.971Z,12.20
2022-09-04T21:47:08.658Z,12.10
2022-09-04T21:49:41.532Z,12.20
2022-09-04T21:52:29.062Z,12.10
2022-09-04T21:57:53.180Z,12.00
2022-09-04T22:02:27.462Z,12.00
2022-09-04T22:02:49.591Z,12.00
2022-09-04T22:04:08.665Z,11.90
2022-09-04T22:08:47.746Z,11.80
2022-09-04T22:13:31.540Z,11.80
2022-09-04T22:13:43.093Z,11.80
2022-09-04T22:15:56.221Z,11.70
2022-09-04T22:18:40.630Z,11.70
2022-09-04T22:21:29.725Z,11.60
2022-09-04T22:24:04.526Z,11.60
2022-09-04T22:26:52.441Z,11.60
2022-09-04T22:29:40.548Z,11.50
2022-09-04T22:32:20.672Z,11.50
2022-09-04T22:34:49.401Z,11.40
2022-09-04T22:37:23.700Z,11.40
2022-09-04T22:40:02.307Z,11.40
2022-09-04T22:42:50.418Z,11.40
2022-09-04T22:45:31.732Z,11.40
2022-09-04T22:48:20.776Z,11.30
2022-09-04T22:51:11.855Z,11.30
2022-09-04T22:53:40.969Z,11.30
2022-09-04T22:56:24.166Z,11.20
2022-09-04T22:59:26.894Z,11.20
2022-09-04T23:02:09.918Z,11.20
2022-09-04T23:04:48.228Z,11.20
2022-09-04T23:13:41.887Z,11.10
2022-09-04T23:13:44.174Z,11.10
2022-09-04T23:14:22.277Z,11.00
2022-09-04T23:17:09.317Z,11.00
2022-09-04T23:26:01.603Z,11.00
2022-09-04T23:26:43.772Z,11.00
2022-09-04T23:26:45.506Z,11.00
2022-09-04T23:28:57.283Z,11.00
2022-09-04T23:31:46.929Z,10.90
2022-09-04T23:34:44.017Z,10.80
2022-09-04T23:37:34.500Z,10.80
2022-09-04T23:40:21.060Z,10.70
2022-09-04T23:43:20.014Z,10.70
2022-09-04T23:46:18.515Z,10.60
2022-09-04T23:49:11.805Z,10.60
2022-09-04T23:52:00.502Z,10.60
2022-09-04T23:54:53.184Z,10.50
2022-09-04T23:57:50.811Z,10.50
